createdAt,value
2023-03-22T00:02:04.916Z,7.23
2023-03-22T00:05:06.910Z,8.17
2023-03-22T00:08:09.240Z,12.37
2023-03-22T00:11:12.607Z,10.40
2023-03-22T00:14:13.993Z,8.53
2023-03-22T00:17:15.607Z,8.27
2023-03-22T00:20:20.920Z,10.53
2023-03-22T00:23:23.468Z,9.77
2023-03-22T00:26:24.854Z,8.50
2023-03-22T00:29:26.542Z,8.83
2023-03-22T00:32:28.132Z,7.87
2023-03-22T00:35:29.583Z,8.17
2023-03-22T00:38:42.879Z,7.60
2023-03-22T00:41:45.470Z,7.27
2023-03-22T00:44:46.894Z,6.40
2023-03-22T00:47:48.395Z,7.23
2023-03-22T00:50:50.062Z,6.63
2023-03-22T00:53:53.844Z,7.17
2023-03-22T00:56:55.384Z,6.67
2023-03-22T00:59:58.190Z,7.10
2023-03-22T01:03:04.900Z,6.03
2023-03-22T01:06:06.892Z,6.27
2023-03-22T01:09:09.185Z,5.77
2023-03-22T01:12:11.191Z,6.67
2023-03-22T01:15:12.810Z,6.77
2023-03-22T01:18:14.319Z,6.90
2023-03-22T01:21:15.836Z,7.47
2023-03-22T01:24:17.284Z,9.07
2023-03-22T01:27:18.678Z,6.00
2023-03-22T01:30:20.309Z,7.37
2023-03-22T01:33:22.085Z,5.80
2023-03-22T01:36:24.333Z,6.57
2023-03-22T01:39:27.174Z,7.47
2023-03-22T01:42:32.673Z,8.87
2023-03-22T01:45:48.716Z,9.07
2023-03-22T01:48:50.651Z,6.40
2023-03-22T01:51:55.618Z,5.20
2023-03-22T01:55:06.634Z,6.27
2023-03-22T01:58:19.218Z,6.50
2023-03-22T02:01:25.591Z,8.40
2023-03-22T02:04:34.321Z,7.40
2023-03-22T02:07:42.167Z,6.47
2023-03-22T02:10:43.695Z,5.57
2023-03-22T02:14:09.418Z,5.90
2023-03-22T02:17:54.234Z,6.60
2023-03-22T02:21:14.969Z,5.87
2023-03-22T02:24:37.699Z,5.80
2023-03-22T02:27:42.509Z,9.57
2023-03-22T02:31:02.156Z,6.10
2023-03-22T02:34:41.268Z,6.00
2023-03-22T02:38:01.521Z,6.20
2023-03-22T02:41:27.865Z,7.23
2023-03-22T02:44:36.207Z,7.77
2023-03-22T02:47:58.553Z,5.63
2023-03-22T02:51:05.733Z,5.57
2023-03-22T02:54:15.223Z,5.10
2023-03-22T02:57:26.124Z,7.50
2023-03-22T03:00:33.172Z,4.97
2023-03-22T03:03:37.803Z,5.67
2023-03-22T03:06:46.434Z,5.80
2023-03-22T03:09:49.018Z,5.57
2023-03-22T03:12:50.485Z,5.97
2023-03-22T03:15:57.293Z,4.90
2023-03-22T03:19:16.142Z,5.30
2023-03-22T03:22:36.804Z,6.07
2023-03-22T03:25:46.216Z,5.53
2023-03-22T03:28:53.158Z,6.27
2023-03-22T03:32:15.760Z,4.33
2023-03-22T03:35:22.948Z,5.47
2023-03-22T03:38:31.467Z,5.73
2023-03-22T03:41:34.391Z,5.53
2023-03-22T03:44:36.520Z,4.60
2023-03-22T03:47:39.648Z,5.57
2023-03-22T03:50:42.028Z,4.40
2023-03-22T03:53:45.361Z,3.97
2023-03-22T03:56:50.840Z,3.87
2023-03-22T03:59:52.673Z,5.57
2023-03-22T04:03:05.658Z,5.40
2023-03-22T04:06:28.904Z,4.80
2023-03-22T04:09:41.494Z,6.23
2023-03-22T04:12:54.234Z,3.60
2023-03-22T04:15:57.376Z,5.30
2023-03-22T04:18:58.993Z,5.80
2023-03-22T04:22:00.464Z,5.37
2023-03-22T04:25:01.981Z,6.43
2023-03-22T04:28:05.294Z,5.83
2023-03-22T04:31:10.720Z,6.13
2023-03-22T04:34:29.459Z,6.43
2023-03-22T04:37:34.920Z,5.57
2023-03-22T04:40:49.059Z,5.20
2023-03-22T04:44:03.323Z,4.57
2023-03-22T04:47:06.799Z,6.23
2023-03-22T04:50:09.507Z,5.20
2023-03-22T04:53:20.265Z,6.60
2023-03-22T04:56:22.348Z,4.47
2023-03-22T04:59:26.612Z,7.10
2023-03-22T05:02:28.300Z,4.43
2023-03-22T05:05:30.365Z,4.27
2023-03-22T05:08:35.409Z,4.03
2023-03-22T05:11:37.475Z,3.53
2023-03-22T05:14:53.160Z,6.50
2023-03-22T05:17:58.985Z,4.63
2023-03-22T05:21:03.695Z,5.43
2023-03-22T05:24:05.612Z,4.37
2023-03-22T05:27:07.074Z,5.30
2023-03-22T05:30:09.950Z,4.50
2023-03-22T05:33:31.765Z,4.73
2023-03-22T05:36:36.359Z,6.13
2023-03-22T05:39:56.614Z,7.87
2023-03-22T05:43:07.114Z,7.10
2023-03-22T05:46:11.571Z,5.63
2023-03-22T05:49:48.210Z,5.87
2023-03-22T05:52:51.953Z,3.53
2023-03-22T05:56:16.253Z,4.03
2023-03-22T05:59:20.829Z,4.40
2023-03-22T06:02:22.482Z,7.37
2023-03-22T06:05:24.004Z,6.10
2023-03-22T06:08:26.950Z,8.63
2023-03-22T06:11:30.485Z,5.63
2023-03-22T06:14:31.992Z,4.77
2023-03-22T06:17:51.264Z,5.30
2023-03-22T06:20:57.807Z,5.33
2023-03-22T06:23:59.635Z,5.67
2023-03-22T06:27:02.655Z,5.60
2023-03-22T06:30:06.253Z,6.27
2023-03-22T06:33:16.537Z,7.03
2023-03-22T06:36:21.849Z,5.20
2023-03-22T06:39:38.001Z,5.77
2023-03-22T06:42:39.450Z,4.93
2023-03-22T06:45:48.192Z,4.23
2023-03-22T06:48:55.650Z,4.43
2023-03-22T06:51:57.412Z,4.07
2023-03-22T06:54:58.891Z,4.50
2023-03-22T06:58:01.439Z,6.50
2023-03-22T07:01:03.115Z,6.20
2023-03-22T07:04:06.532Z,3.80
2023-03-22T07:07:08.007Z,6.40
2023-03-22T07:10:10.956Z,4.93
2023-03-22T07:13:13.194Z,5.80
2023-03-22T07:16:15.347Z,5.37
2023-03-22T07:19:24.606Z,5.90
2023-03-22T07:22:27.172Z,5.37
2023-03-22T07:25:29.277Z,6.70
2023-03-22T07:28:44.593Z,5.63
2023-03-22T07:31:47.979Z,5.20
2023-03-22T07:34:59.780Z,4.50
2023-03-22T07:38:01.389Z,6.40
2023-03-22T07:41:06.644Z,6.13
2023-03-22T07:44:27.958Z,5.03
2023-03-22T07:47:52.688Z,5.93
2023-03-22T07:51:20.253Z,7.10
2023-03-22T07:54:33.005Z,5.33
2023-03-22T07:57:37.036Z,5.13
2023-03-22T08:00:38.847Z,6.13
2023-03-22T08:04:00.671Z,5.37
2023-03-22T08:07:30.201Z,7.07
2023-03-22T08:10:32.831Z,5.53
2023-03-22T08:13:36.157Z,4.97
2023-03-22T08:16:38.400Z,4.87
2023-03-22T08:19:40.713Z,5.87
2023-03-22T08:22:46.176Z,3.20
2023-03-22T08:25:53.780Z,3.73
2023-03-22T08:28:56.890Z,4.47
2023-03-22T08:32:02.318Z,4.13
2023-03-22T08:35:06.352Z,4.73
2023-03-22T08:38:08.402Z,4.30
2023-03-22T08:41:17.282Z,4.63
2023-03-22T08:44:18.681Z,3.83
2023-03-22T08:47:20.200Z,2.53
2023-03-22T08:50:26.622Z,5.10
2023-03-22T08:53:39.829Z,4.43
2023-03-22T08:57:03.389Z,2.47
2023-03-22T09:00:23.873Z,4.33
2023-03-22T09:03:35.962Z,3.30
2023-03-22T09:06:37.933Z,2.10
2023-03-22T09:09:39.565Z,2.17
2023-03-22T09:12:42.346Z,2.30
2023-03-22T09:15:47.472Z,4.13
2023-03-22T09:18:55.935Z,2.27
2023-03-22T09:21:58.689Z,3.13
2023-03-22T09:25:15.407Z,2.53
2023-03-22T09:28:19.942Z,3.83
2023-03-22T09:31:21.969Z,4.80
2023-03-22T09:34:33.576Z,2.30
2023-03-22T09:37:35.589Z,2.00
2023-03-22T09:40:43.322Z,1.60
2023-03-22T09:43:50.860Z,2.60
2023-03-22T09:46:54.992Z,1.03
2023-03-22T09:50:05.247Z,1.20
2023-03-22T09:53:13.696Z,1.50
2023-03-22T09:56:23.737Z,1.03
2023-03-22T09:59:35.989Z,2.77
2023-03-22T10:02:46.523Z,3.33
2023-03-22T10:06:00.122Z,4.50
2023-03-22T10:09:19.177Z,2.30
2023-03-22T10:12:29.261Z,3.13
2023-03-22T10:15:44.560Z,1.97
2023-03-22T10:18:51.517Z,1.47
2023-03-22T10:21:56.541Z,4.57
2023-03-22T10:24:59.958Z,2.57
2023-03-22T10:28:02.277Z,4.97
2023-03-22T10:31:05.786Z,3.33
2023-03-22T10:34:16.903Z,3.40
2023-03-22T10:37:24.831Z,1.17
2023-03-22T10:40:30.897Z,1.97
2023-03-22T10:43:36.819Z,2.00
2023-03-22T10:46:40.615Z,1.80
2023-03-22T10:49:46.313Z,2.40
2023-03-22T10:52:56.558Z,1.53
2023-03-22T10:55:58.530Z,2.73
2023-03-22T10:58:59.918Z,2.03
2023-03-22T11:02:01.853Z,1.77
2023-03-22T11:05:05.791Z,2.03
2023-03-22T11:08:07.266Z,2.80
2023-03-22T11:11:36.538Z,1.87
2023-03-22T11:14:43.887Z,1.60
2023-03-22T11:17:45.457Z,1.30
2023-03-22T11:20:59.754Z,3.73
2023-03-22T11:24:05.751Z,1.20
2023-03-22T11:27:19.428Z,4.23
2023-03-22T11:30:24.525Z,2.53
2023-03-22T11:33:26.038Z,1.53
2023-03-22T11:36:29.028Z,1.53
2023-03-22T11:39:30.572Z,2.23
2023-03-22T11:42:34.255Z,1.20
2023-03-22T11:45:41.101Z,2.50
2023-03-22T11:48:45.423Z,3.33
2023-03-22T11:51:46.933Z,3.90
2023-03-22T11:54:49.915Z,1.77
2023-03-22T11:57:55.794Z,3.87
2023-03-22T12:01:01.948Z,2.80
2023-03-22T12:04:08.066Z,2.83
2023-03-22T12:07:16.103Z,4.47
2023-03-22T12:10:26.535Z,3.20
2023-03-22T12:14:00.475Z,2.13
2023-03-22T12:17:11.936Z,1.57
2023-03-22T12:20:32.916Z,1.90
2023-03-22T12:23:37.795Z,2.27
2023-03-22T12:26:39.717Z,1.80
2023-03-22T12:29:47.203Z,2.30
2023-03-22T12:33:14.215Z,1.30
2023-03-22T12:36:23.807Z,1.47
2023-03-22T12:39:37.676Z,2.40
2023-03-22T12:42:51.816Z,1.20
2023-03-22T12:46:01.687Z,5.27
2023-03-22T12:49:19.325Z,1.60
2023-03-22T12:52:32.018Z,1.30
2023-03-22T12:55:41.207Z,1.50
2023-03-22T12:58:48.147Z,1.40
2023-03-22T13:02:15.933Z,1.83
2023-03-22T13:05:18.257Z,4.30
2023-03-22T13:08:22.302Z,1.37
2023-03-22T13:11:24.282Z,1.47
2023-03-22T13:14:56.528Z,2.20
2023-03-22T13:17:58.904Z,3.30
2023-03-22T13:21:29.257Z,1.83
2023-03-22T13:24:32.545Z,1.27
2023-03-22T13:27:37.724Z,2.20
2023-03-22T13:30:54.398Z,1.57
2023-03-22T13:33:57.861Z,1.37
2023-03-22T13:37:01.516Z,3.50
2023-03-22T13:40:27.331Z,2.60
2023-03-22T13:43:31.001Z,2.23
2023-03-22T13:46:35.624Z,1.30
2023-03-22T13:49:54.148Z,2.50
2023-03-22T13:53:06.533Z,1.63
2023-03-22T13:56:12.815Z,1.77
2023-03-22T13:59:24.239Z,1.87
2023-03-22T14:02:30.695Z,3.83
2023-03-22T14:05:36.253Z,2.37
2023-03-22T14:08:40.556Z,3.67
2023-03-22T14:12:08.315Z,2.50
2023-03-22T14:15:17.296Z,2.97
2023-03-22T14:18:33.183Z,1.97
2023-03-22T14:21:39.012Z,6.13
